Athensville, Illinois
Current Conditions -  °F | °C
As of 11:15 AM on Saturday 20 Dec 2014 (Local Time) from KIJX Reporting Station
Overcast Overcast  
Wind Chill:   Ceiling: 3200
Heat Index:   Visibility: 7mi
Dew Point:   Wind: 5mph
Humidity: 76%   Direction: 160°SSE
Pressure: 30.26"   Gusts: NA
Location:  39.491°N, 90.2996°W
Report Text: KIJX 201715Z AUTO 16004KT 7SM SCT017 OVC032 04/00 A3026 RMK AO2 T00361003
Loading
Personal Weather Stations






























Interactive Weather Map New forecast layout! Learn more

10-Day Weather Forecast

Advertisements
Track Severe Weather on mobile